sensor_id;sensor_type;location;lat;lon;timestamp;temperature;humidity
7844;DHT22;3967;48.702;9.326;2023-10-13T00:02:02;19.20;73.10
7844;DHT22;3967;48.702;9.326;2023-10-13T00:04:32;19.20;71.90
7844;DHT22;3967;48.702;9.326;2023-10-13T00:07:02;19.20;71.70
7844;DHT22;3967;48.702;9.326;2023-10-13T00:09:31;19.20;71.80
7844;DHT22;3967;48.702;9.326;2023-10-13T00:12:05;19.30;73.00
7844;DHT22;3967;48.702;9.326;2023-10-13T00:14:36;19.20;73.80
7844;DHT22;3967;48.702;9.326;2023-10-13T00:17:08;19.20;74.30
7844;DHT22;3967;48.702;9.326;2023-10-13T00:19:37;19.10;74.80
7844;DHT22;3967;48.702;9.326;2023-10-13T00:22:15;19.00;75.10
7844;DHT22;3967;48.702;9.326;2023-10-13T00:24:49;18.90;75.00
7844;DHT22;3967;48.702;9.326;2023-10-13T00:27:19;19.00;74.60
7844;DHT22;3967;48.702;9.326;2023-10-13T00:30:08;18.90;74.80
7844;DHT22;3967;48.702;9.326;2023-10-13T00:32:44;18.90;74.20
7844;DHT22;3967;48.702;9.326;2023-10-13T00:35:17;18.90;73.90
7844;DHT22;3967;48.702;9.326;2023-10-13T00:37:56;18.80;72.50
7844;DHT22;3967;48.702;9.326;2023-10-13T00:40:25;18.70;72.50
7844;DHT22;3967;48.702;9.326;2023-10-13T00:42:59;18.60;73.40
7844;DHT22;3967;48.702;9.326;2023-10-13T00:46:00;18.60;73.30
7844;DHT22;3967;48.702;9.326;2023-10-13T00:48:32;18.70;72.80
7844;DHT22;3967;48.702;9.326;2023-10-13T00:51:05;18.70;72.80
7844;DHT22;3967;48.702;9.326;2023-10-13T00:53:42;18.70;72.70
7844;DHT22;3967;48.702;9.326;2023-10-13T00:56:11;18.60;72.90
7844;DHT22;3967;48.702;9.326;2023-10-13T00:58:48;18.70;73.40
7844;DHT22;3967;48.702;9.326;2023-10-13T01:01:22;18.60;73.40
7844;DHT22;3967;48.702;9.326;2023-10-13T01:03:54;18.60;72.40
7844;DHT22;3967;48.702;9.326;2023-10-13T01:06:32;18.60;72.40
7844;DHT22;3967;48.702;9.326;2023-10-13T01:11:26;18.50;72.60
7844;DHT22;3967;48.702;9.326;2023-10-13T01:13:56;18.40;73.30
7844;DHT22;3967;48.702;9.326;2023-10-13T01:16:23;18.40;73.30
7844;DHT22;3967;48.702;9.326;2023-10-13T01:18:53;18.40;73.90
7844;DHT22;3967;48.702;9.326;2023-10-13T01:21:26;18.30;74.00
7844;DHT22;3967;48.702;9.326;2023-10-13T01:23:54;18.30;74.20
7844;DHT22;3967;48.702;9.326;2023-10-13T01:26:21;18.20;74.40
7844;DHT22;3967;48.702;9.326;2023-10-13T01:28:51;18.00;74.80
7844;DHT22;3967;48.702;9.326;2023-10-13T01:31:18;18.10;75.10
7844;DHT22;3967;48.702;9.326;2023-10-13T01:33:53;17.80;75.00
7844;DHT22;3967;48.702;9.326;2023-10-13T01:36:26;17.70;75.10
7844;DHT22;3967;48.702;9.326;2023-10-13T01:38:54;17.60;75.10
7844;DHT22;3967;48.702;9.326;2023-10-13T01:41:21;17.60;75.30
7844;DHT22;3967;48.702;9.326;2023-10-13T01:43:48;17.60;75.20
7844;DHT22;3967;48.702;9.326;2023-10-13T01:46:15;17.60;74.90
7844;DHT22;3967;48.702;9.326;2023-10-13T01:48:46;17.60;74.90
7844;DHT22;3967;48.702;9.326;2023-10-13T01:51:13;17.50;74.80
7844;DHT22;3967;48.702;9.326;2023-10-13T01:53:40;17.50;74.90
7844;DHT22;3967;48.702;9.326;2023-10-13T01:56:11;17.60;75.20
7844;DHT22;3967;48.702;9.326;2023-10-13T01:58:39;17.70;75.20
7844;DHT22;3967;48.702;9.326;2023-10-13T02:01:09;17.70;75.00
7844;DHT22;3967;48.702;9.326;2023-10-13T02:03:38;17.70;74.80
7844;DHT22;3967;48.702;9.326;2023-10-13T02:06:13;17.60;75.30
7844;DHT22;3967;48.702;9.326;2023-10-13T02:08:44;17.50;75.50
7844;DHT22;3967;48.702;9.326;2023-10-13T02:11:14;17.50;75.90
7844;DHT22;3967;48.702;9.326;2023-10-13T02:13:45;17.60;76.10
7844;DHT22;3967;48.702;9.326;2023-10-13T02:16:15;17.50;76.00
7844;DHT22;3967;48.702;9.326;2023-10-13T02:18:47;17.40;76.50
7844;DHT22;3967;48.702;9.326;2023-10-13T02:21:18;17.40;76.90
7844;DHT22;3967;48.702;9.326;2023-10-13T02:23:45;17.40;77.20
7844;DHT22;3967;48.702;9.326;2023-10-13T02:26:13;17.20;77.40
7844;DHT22;3967;48.702;9.326;2023-10-13T02:29:01;17.20;77.60
7844;DHT22;3967;48.702;9.326;2023-10-13T02:31:38;16.80;78.40
7844;DHT22;3967;48.702;9.326;2023-10-13T02:34:06;16.90;79.10
7844;DHT22;3967;48.702;9.326;2023-10-13T02:36:39;16.90;79.20
7844;DHT22;3967;48.702;9.326;2023-10-13T02:39:19;17.00;79.50
7844;DHT22;3967;48.702;9.326;2023-10-13T02:41:54;16.90;79.50
7844;DHT22;3967;48.702;9.326;2023-10-13T02:44:22;16.60;80.00
7844;DHT22;3967;48.702;9.326;2023-10-13T02:46:58;16.70;80.90
7844;DHT22;3967;48.702;9.326;2023-10-13T02:49:26;16.70;81.10
7844;DHT22;3967;48.702;9.326;2023-10-13T02:51:54;16.80;81.20
7844;DHT22;3967;48.702;9.326;2023-10-13T02:54:22;16.60;81.00
7844;DHT22;3967;48.702;9.326;2023-10-13T02:56:49;16.60;81.10
7844;DHT22;3967;48.702;9.326;2023-10-13T02:59:24;16.60;81.70
7844;DHT22;3967;48.702;9.326;2023-10-13T03:02:09;16.70;82.30
7844;DHT22;3967;48.702;9.326;2023-10-13T03:04:51;16.60;82.70
7844;DHT22;3967;48.702;9.326;2023-10-13T03:07:20;16.60;82.90
7844;DHT22;3967;48.702;9.326;2023-10-13T03:09:50;16.50;83.40
7844;DHT22;3967;48.702;9.326;2023-10-13T03:12:18;16.60;84.10
7844;DHT22;3967;48.702;9.326;2023-10-13T03:14:45;16.50;85.00
7844;DHT22;3967;48.702;9.326;2023-10-13T03:17:15;16.40;85.60
7844;DHT22;3967;48.702;9.326;2023-10-13T03:19:46;16.30;86.00
7844;DHT22;3967;48.702;9.326;2023-10-13T03:22:17;16.10;87.10
7844;DHT22;3967;48.702;9.326;2023-10-13T03:24:45;16.10;87.80
7844;DHT22;3967;48.702;9.326;2023-10-13T03:27:21;16.10;88.30
7844;DHT22;3967;48.702;9.326;2023-10-13T03:29:50;16.20;88.40
7844;DHT22;3967;48.702;9.326;2023-10-13T03:32:23;16.20;88.60
7844;DHT22;3967;48.702;9.326;2023-10-13T03:34:53;16.10;89.40
7844;DHT22;3967;48.702;9.326;2023-10-13T03:37:26;16.10;89.60
7844;DHT22;3967;48.702;9.326;2023-10-13T03:40:09;16.20;89.50
7844;DHT22;3967;48.702;9.326;2023-10-13T03:42:59;16.20;89.80
7844;DHT22;3967;48.702;9.326;2023-10-13T03:45:34;16.20;89.40
7844;DHT22;3967;48.702;9.326;2023-10-13T03:48:06;16.20;89.80
7844;DHT22;3967;48.702;9.326;2023-10-13T03:50:40;16.10;89.60
7844;DHT22;3967;48.702;9.326;2023-10-13T03:53:14;16.10;90.00
7844;DHT22;3967;48.702;9.326;2023-10-13T03:55:41;16.10;89.90
7844;DHT22;3967;48.702;9.326;2023-10-13T03:58:15;16.10;89.90
7844;DHT22;3967;48.702;9.326;2023-10-13T04:00:44;15.90;90.00
7844;DHT22;3967;48.702;9.326;2023-10-13T04:03:13;15.90;90.30
7844;DHT22;3967;48.702;9.326;2023-10-13T04:05:46;15.80;90.30
7844;DHT22;3967;48.702;9.326;2023-10-13T04:08:32;15.70;90.50
7844;DHT22;3967;48.702;9.326;2023-10-13T04:11:14;15.70;90.60
7844;DHT22;3967;48.702;9.326;2023-10-13T04:14:00;15.60;90.80
7844;DHT22;3967;48.702;9.326;2023-10-13T04:16:53;15.60;91.10
7844;DHT22;3967;48.702;9.326;2023-10-13T04:19:21;15.50;91.30
7844;DHT22;3967;48.702;9.326;2023-10-13T04:21:52;15.60;91.70
7844;DHT22;3967;48.702;9.326;2023-10-13T04:24:26;15.50;91.70
7844;DHT22;3967;48.702;9.326;2023-10-13T04:27:13;15.50;91.70
7844;DHT22;3967;48.702;9.326;2023-10-13T04:30:07;15.40;92.10
7844;DHT22;3967;48.702;9.326;2023-10-13T04:32:34;15.50;92.10
7844;DHT22;3967;48.702;9.326;2023-10-13T04:35:15;15.40;92.20
7844;DHT22;3967;48.702;9.326;2023-10-13T04:37:42;15.50;92.00
7844;DHT22;3967;48.702;9.326;2023-10-13T04:40:27;15.50;92.10
7844;DHT22;3967;48.702;9.326;2023-10-13T04:43:02;15.50;92.20
7844;DHT22;3967;48.702;9.326;2023-10-13T04:45:51;15.50;92.30
7844;DHT22;3967;48.702;9.326;2023-10-13T04:48:21;15.50;92.40
7844;DHT22;3967;48.702;9.326;2023-10-13T04:50:49;15.60;92.40
7844;DHT22;3967;48.702;9.326;2023-10-13T04:53:18;15.40;92.50
7844;DHT22;3967;48.702;9.326;2023-10-13T04:56:14;15.30;92.70
7844;DHT22;3967;48.702;9.326;2023-10-13T04:58:59;15.40;92.80
7844;DHT22;3967;48.702;9.326;2023-10-13T05:01:45;15.30;92.70
7844;DHT22;3967;48.702;9.326;2023-10-13T05:04:24;15.30;92.70
7844;DHT22;3967;48.702;9.326;2023-10-13T05:07:05;15.30;92.70
7844;DHT22;3967;48.702;9.326;2023-10-13T05:09:51;15.20;92.90
7844;DHT22;3967;48.702;9.326;2023-10-13T05:12:36;15.10;92.80
7844;DHT22;3967;48.702;9.326;2023-10-13T05:15:22;15.20;93.20
7844;DHT22;3967;48.702;9.326;2023-10-13T05:18:07;15.10;93.60
7844;DHT22;3967;48.702;9.326;2023-10-13T05:20:55;15.10;93.70
7844;DHT22;3967;48.702;9.326;2023-10-13T05:23:40;15.20;93.70
7844;DHT22;3967;48.702;9.326;2023-10-13T05:26:39;15.10;93.70
7844;DHT22;3967;48.702;9.326;2023-10-13T05:29:25;15.10;93.90
7844;DHT22;3967;48.702;9.326;2023-10-13T05:32:10;15.00;94.20
7844;DHT22;3967;48.702;9.326;2023-10-13T05:34:56;15.00;94.40
7844;DHT22;3967;48.702;9.326;2023-10-13T05:37:41;15.00;94.40
7844;DHT22;3967;48.702;9.326;2023-10-13T05:41:37;14.90;94.50
7844;DHT22;3967;48.702;9.326;2023-10-13T05:44:36;15.00;94.70
7844;DHT22;3967;48.702;9.326;2023-10-13T05:47:23;15.00;94.60
7844;DHT22;3967;48.702;9.326;2023-10-13T05:50:06;14.90;94.80
7844;DHT22;3967;48.702;9.326;2023-10-13T05:52:49;14.90;95.00
7844;DHT22;3967;48.702;9.326;2023-10-13T05:55:26;14.90;95.20
7844;DHT22;3967;48.702;9.326;2023-10-13T05:58:12;14.90;95.30
7844;DHT22;3967;48.702;9.326;2023-10-13T06:00:58;14.90;95.40
7844;DHT22;3967;48.702;9.326;2023-10-13T06:03:44;14.90;95.40
7844;DHT22;3967;48.702;9.326;2023-10-13T06:06:30;14.80;95.60
7844;DHT22;3967;48.702;9.326;2023-10-13T06:09:15;14.90;95.50
7844;DHT22;3967;48.702;9.326;2023-10-13T06:12:00;14.90;95.40
7844;DHT22;3967;48.702;9.326;2023-10-13T06:14:46;14.90;95.60
7844;DHT22;3967;48.702;9.326;2023-10-13T06:17:32;14.90;95.40
7844;DHT22;3967;48.702;9.326;2023-10-13T06:20:17;15.00;95.40
7844;DHT22;3967;48.702;9.326;2023-10-13T06:23:03;14.90;95.30
7844;DHT22;3967;48.702;9.326;2023-10-13T06:25:52;14.90;95.60
7844;DHT22;3967;48.702;9.326;2023-10-13T06:28:38;15.00;95.50
7844;DHT22;3967;48.702;9.326;2023-10-13T06:31:09;15.00;95.40
7844;DHT22;3967;48.702;9.326;2023-10-13T06:33:48;15.10;95.10
7844;DHT22;3967;48.702;9.326;2023-10-13T06:36:15;15.10;95.10
7844;DHT22;3967;48.702;9.326;2023-10-13T06:38:44;15.20;94.90
7844;DHT22;3967;48.702;9.326;2023-10-13T06:41:11;15.20;94.80
7844;DHT22;3967;48.702;9.326;2023-10-13T06:43:47;15.40;94.40
7844;DHT22;3967;48.702;9.326;2023-10-13T06:46:27;15.50;94.10
7844;DHT22;3967;48.702;9.326;2023-10-13T06:48:55;15.50;93.90
7844;DHT22;3967;48.702;9.326;2023-10-13T06:51:22;15.70;93.80
7844;DHT22;3967;48.702;9.326;2023-10-13T06:53:49;15.80;93.60
7844;DHT22;3967;48.702;9.326;2023-10-13T06:56:16;15.80;93.30
7844;DHT22;3967;48.702;9.326;2023-10-13T06:58:49;15.80;93.20
7844;DHT22;3967;48.702;9.326;2023-10-13T07:01:16;15.80;93.20
7844;DHT22;3967;48.702;9.326;2023-10-13T07:03:48;15.80;92.90
7844;DHT22;3967;48.702;9.326;2023-10-13T07:06:22;15.70;92.70
7844;DHT22;3967;48.702;9.326;2023-10-13T07:08:49;15.80;92.60
7844;DHT22;3967;48.702;9.326;2023-10-13T07:11:25;15.80;92.20
7844;DHT22;3967;48.702;9.326;2023-10-13T07:14:04;15.90;91.90
7844;DHT22;3967;48.702;9.326;2023-10-13T07:16:43;16.00;92.30
7844;DHT22;3967;48.702;9.326;2023-10-13T07:19:13;16.00;92.50
7844;DHT22;3967;48.702;9.326;2023-10-13T07:21:46;16.10;92.90
7844;DHT22;3967;48.702;9.326;2023-10-13T07:24:13;16.00;93.50
7844;DHT22;3967;48.702;9.326;2023-10-13T07:26:40;16.00;92.90
7844;DHT22;3967;48.702;9.326;2023-10-13T07:29:12;16.10;93.10
7844;DHT22;3967;48.702;9.326;2023-10-13T07:31:40;16.00;93.40
7844;DHT22;3967;48.702;9.326;2023-10-13T07:34:12;16.30;93.30
7844;DHT22;3967;48.702;9.326;2023-10-13T07:36:43;16.30;93.00
7844;DHT22;3967;48.702;9.326;2023-10-13T07:39:10;16.30;93.10
7844;DHT22;3967;48.702;9.326;2023-10-13T07:41:57;16.40;92.70
7844;DHT22;3967;48.702;9.326;2023-10-13T07:44:41;16.60;92.60
7844;DHT22;3967;48.702;9.326;2023-10-13T07:47:14;16.80;92.40
7844;DHT22;3967;48.702;9.326;2023-10-13T07:49:41;17.00;92.00
7844;DHT22;3967;48.702;9.326;2023-10-13T07:52:09;17.10;91.10
7844;DHT22;3967;48.702;9.326;2023-10-13T07:54:47;17.30;90.60
7844;DHT22;3967;48.702;9.326;2023-10-13T07:57:22;17.40;90.20
7844;DHT22;3967;48.702;9.326;2023-10-13T07:59:58;17.60;89.20
7844;DHT22;3967;48.702;9.326;2023-10-13T08:02:37;17.80;88.10
7844;DHT22;3967;48.702;9.326;2023-10-13T08:05:16;17.80;88.50
7844;DHT22;3967;48.702;9.326;2023-10-13T08:08:00;17.70;87.50
7844;DHT22;3967;48.702;9.326;2023-10-13T08:10:35;17.70;88.40
7844;DHT22;3967;48.702;9.326;2023-10-13T08:13:07;17.80;88.70
7844;DHT22;3967;48.702;9.326;2023-10-13T08:15:42;17.80;89.10
7844;DHT22;3967;48.702;9.326;2023-10-13T08:18:19;18.00;88.30
7844;DHT22;3967;48.702;9.326;2023-10-13T08:21:05;18.30;87.20
7844;DHT22;3967;48.702;9.326;2023-10-13T08:23:32;18.50;87.00
7844;DHT22;3967;48.702;9.326;2023-10-13T08:26:37;18.80;85.50
7844;DHT22;3967;48.702;9.326;2023-10-13T08:29:23;18.90;85.00
7844;DHT22;3967;48.702;9.326;2023-10-13T08:31:52;19.00;85.10
7844;DHT22;3967;48.702;9.326;2023-10-13T08:34:32;19.20;86.00
7844;DHT22;3967;48.702;9.326;2023-10-13T08:37:31;19.50;85.50
7844;DHT22;3967;48.702;9.326;2023-10-13T08:40:07;19.60;82.90
7844;DHT22;3967;48.702;9.326;2023-10-13T08:42:53;19.90;81.70
7844;DHT22;3967;48.702;9.326;2023-10-13T08:45:40;20.20;79.60
7844;DHT22;3967;48.702;9.326;2023-10-13T08:48:09;20.50;77.30
7844;DHT22;3967;48.702;9.326;2023-10-13T08:53:18;20.80;72.70
7844;DHT22;3967;48.702;9.326;2023-10-13T08:56:04;20.90;72.30
7844;DHT22;3967;48.702;9.326;2023-10-13T08:58:44;21.00;71.80
7844;DHT22;3967;48.702;9.326;2023-10-13T09:01:47;21.30;71.30
7844;DHT22;3967;48.702;9.326;2023-10-13T09:04:28;21.50;69.30
7844;DHT22;3967;48.702;9.326;2023-10-13T09:07:05;21.60;68.80
7844;DHT22;3967;48.702;9.326;2023-10-13T09:12:24;21.70;69.50
7844;DHT22;3967;48.702;9.326;2023-10-13T09:15:05;21.70;68.20
7844;DHT22;3967;48.702;9.326;2023-10-13T09:17:50;21.90;69.30
7844;DHT22;3967;48.702;9.326;2023-10-13T09:20:32;22.00;69.40
7844;DHT22;3967;48.702;9.326;2023-10-13T09:23:14;21.90;69.90
7844;DHT22;3967;48.702;9.326;2023-10-13T09:26:05;22.00;70.10
7844;DHT22;3967;48.702;9.326;2023-10-13T09:28:38;22.20;70.20
7844;DHT22;3967;48.702;9.326;2023-10-13T09:31:06;22.30;70.00
7844;DHT22;3967;48.702;9.326;2023-10-13T09:33:34;22.50;69.60
7844;DHT22;3967;48.702;9.326;2023-10-13T09:36:03;22.70;68.30
7844;DHT22;3967;48.702;9.326;2023-10-13T09:38:37;22.80;66.30
7844;DHT22;3967;48.702;9.326;2023-10-13T09:41:07;22.90;64.90
7844;DHT22;3967;48.702;9.326;2023-10-13T09:43:53;23.20;61.40
7844;DHT22;3967;48.702;9.326;2023-10-13T09:46:27;23.30;58.90
7844;DHT22;3967;48.702;9.326;2023-10-13T09:48:58;23.40;58.00
7844;DHT22;3967;48.702;9.326;2023-10-13T09:51:31;23.60;57.90
7844;DHT22;3967;48.702;9.326;2023-10-13T09:57:00;23.80;56.40
7844;DHT22;3967;48.702;9.326;2023-10-13T09:59:39;24.00;55.70
7844;DHT22;3967;48.702;9.326;2023-10-13T10:02:14;24.10;55.70
7844;DHT22;3967;48.702;9.326;2023-10-13T10:04:56;24.30;55.10
7844;DHT22;3967;48.702;9.326;2023-10-13T10:07:40;24.40;54.20
7844;DHT22;3967;48.702;9.326;2023-10-13T10:10:08;24.50;54.00
7844;DHT22;3967;48.702;9.326;2023-10-13T10:12:48;24.50;53.90
7844;DHT22;3967;48.702;9.326;2023-10-13T10:15:31;24.70;53.80
7844;DHT22;3967;48.702;9.326;2023-10-13T10:18:23;24.80;53.50
7844;DHT22;3967;48.702;9.326;2023-10-13T10:21:03;24.90;53.10
7844;DHT22;3967;48.702;9.326;2023-10-13T10:23:34;25.00;52.70
7844;DHT22;3967;48.702;9.326;2023-10-13T10:26:10;25.00;52.30
7844;DHT22;3967;48.702;9.326;2023-10-13T10:28:42;25.00;52.80
7844;DHT22;3967;48.702;9.326;2023-10-13T10:31:14;25.10;52.60
7844;DHT22;3967;48.702;9.326;2023-10-13T10:33:43;25.10;53.00
7844;DHT22;3967;48.702;9.326;2023-10-13T10:36:12;25.30;53.70
7844;DHT22;3967;48.702;9.326;2023-10-13T10:38:54;25.50;52.20
7844;DHT22;3967;48.702;9.326;2023-10-13T10:41:30;25.60;52.10
7844;DHT22;3967;48.702;9.326;2023-10-13T10:44:14;25.70;51.30
7844;DHT22;3967;48.702;9.326;2023-10-13T10:47:14;25.70;50.20
7844;DHT22;3967;48.702;9.326;2023-10-13T10:50:03;25.70;50.40
7844;DHT22;3967;48.702;9.326;2023-10-13T10:52:52;26.00;50.50
7844;DHT22;3967;48.702;9.326;2023-10-13T10:55:24;26.20;50.50
7844;DHT22;3967;48.702;9.326;2023-10-13T10:58:02;26.20;49.90
7844;DHT22;3967;48.702;9.326;2023-10-13T11:00:32;26.30;49.70
7844;DHT22;3967;48.702;9.326;2023-10-13T11:03:12;26.40;49.00
7844;DHT22;3967;48.702;9.326;2023-10-13T11:05:46;26.40;49.30
7844;DHT22;3967;48.702;9.326;2023-10-13T11:08:23;26.30;48.70
7844;DHT22;3967;48.702;9.326;2023-10-13T11:11:04;26.40;49.00
7844;DHT22;3967;48.702;9.326;2023-10-13T11:13:45;26.40;48.80
7844;DHT22;3967;48.702;9.326;2023-10-13T11:16:21;26.50;48.70
7844;DHT22;3967;48.702;9.326;2023-10-13T11:19:04;26.50;47.20
7844;DHT22;3967;48.702;9.326;2023-10-13T11:21:32;26.60;47.20
7844;DHT22;3967;48.702;9.326;2023-10-13T11:23:59;26.80;46.30
7844;DHT22;3967;48.702;9.326;2023-10-13T11:26:35;26.90;44.20
7844;DHT22;3967;48.702;9.326;2023-10-13T11:29:17;26.90;44.80
7844;DHT22;3967;48.702;9.326;2023-10-13T11:31:48;27.00;44.80
7844;DHT22;3967;48.702;9.326;2023-10-13T11:34:26;27.00;44.80
7844;DHT22;3967;48.702;9.326;2023-10-13T11:37:06;26.90;44.30
7844;DHT22;3967;48.702;9.326;2023-10-13T11:39:56;26.90;43.60
7844;DHT22;3967;48.702;9.326;2023-10-13T11:42:23;27.00;43.60
7844;DHT22;3967;48.702;9.326;2023-10-13T11:44:53;27.00;43.50
7844;DHT22;3967;48.702;9.326;2023-10-13T11:47:40;27.10;43.50
7844;DHT22;3967;48.702;9.326;2023-10-13T11:50:26;27.20;42.70
7844;DHT22;3967;48.702;9.326;2023-10-13T11:53:00;27.30;42.50
7844;DHT22;3967;48.702;9.326;2023-10-13T11:55:27;27.40;42.50
7844;DHT22;3967;48.702;9.326;2023-10-13T11:57:54;27.50;42.50
7844;DHT22;3967;48.702;9.326;2023-10-13T12:00:21;27.50;41.50
7844;DHT22;3967;48.702;9.326;2023-10-13T12:03:26;27.50;41.50
7844;DHT22;3967;48.702;9.326;2023-10-13T12:06:11;27.60;41.40
7844;DHT22;3967;48.702;9.326;2023-10-13T12:09:08;27.70;42.00
7844;DHT22;3967;48.702;9.326;2023-10-13T12:11:58;27.70;41.70
7844;DHT22;3967;48.702;9.326;2023-10-13T12:14:27;27.80;41.30
7844;DHT22;3967;48.702;9.326;2023-10-13T12:17:06;27.70;41.30
7844;DHT22;3967;48.702;9.326;2023-10-13T12:19:37;27.70;41.30
7844;DHT22;3967;48.702;9.326;2023-10-13T12:22:05;27.70;41.20
7844;DHT22;3967;48.702;9.326;2023-10-13T12:24:35;27.70;41.30
7844;DHT22;3967;48.702;9.326;2023-10-13T12:27:06;27.70;41.00
7844;DHT22;3967;48.702;9.326;2023-10-13T12:29:52;27.70;40.90
7844;DHT22;3967;48.702;9.326;2023-10-13T12:32:19;27.70;41.30
7844;DHT22;3967;48.702;9.326;2023-10-13T12:34:52;27.70;40.80
7844;DHT22;3967;48.702;9.326;2023-10-13T12:37:31;27.80;41.00
7844;DHT22;3967;48.702;9.326;2023-10-13T12:40:13;27.80;41.40
7844;DHT22;3967;48.702;9.326;2023-10-13T12:42:59;27.90;41.60
7844;DHT22;3967;48.702;9.326;2023-10-13T12:45:46;27.90;41.30
7844;DHT22;3967;48.702;9.326;2023-10-13T12:48:32;27.80;41.20
7844;DHT22;3967;48.702;9.326;2023-10-13T12:51:18;27.90;41.20
7844;DHT22;3967;48.702;9.326;2023-10-13T12:53:55;27.80;41.40
7844;DHT22;3967;48.702;9.326;2023-10-13T12:56:31;27.90;41.80
7844;DHT22;3967;48.702;9.326;2023-10-13T12:58:58;27.90;41.40
7844;DHT22;3967;48.702;9.326;2023-10-13T13:01:25;28.00;41.70
7844;DHT22;3967;48.702;9.326;2023-10-13T13:03:59;28.00;41.30
7844;DHT22;3967;48.702;9.326;2023-10-13T13:06:30;28.00;41.50
7844;DHT22;3967;48.702;9.326;2023-10-13T13:08:58;28.00;41.00
7844;DHT22;3967;48.702;9.326;2023-10-13T13:11:26;28.00;41.10
7844;DHT22;3967;48.702;9.326;2023-10-13T13:13:56;28.00;41.10
7844;DHT22;3967;48.702;9.326;2023-10-13T13:16:23;28.10;41.00
7844;DHT22;3967;48.702;9.326;2023-10-13T13:18:57;28.10;41.40
7844;DHT22;3967;48.702;9.326;2023-10-13T13:21:24;28.10;41.30
7844;DHT22;3967;48.702;9.326;2023-10-13T13:23:51;28.10;41.60
7844;DHT22;3967;48.702;9.326;2023-10-13T13:26:24;28.20;41.80
7844;DHT22;3967;48.702;9.326;2023-10-13T13:28:51;28.20;41.60
7844;DHT22;3967;48.702;9.326;2023-10-13T13:31:18;28.20;41.70
7844;DHT22;3967;48.702;9.326;2023-10-13T13:33:45;28.20;41.60
7844;DHT22;3967;48.702;9.326;2023-10-13T13:36:12;28.10;41.20
7844;DHT22;3967;48.702;9.326;2023-10-13T13:38:44;28.10;41.70
7844;DHT22;3967;48.702;9.326;2023-10-13T13:41:18;28.10;42.00
7844;DHT22;3967;48.702;9.326;2023-10-13T13:43:49;28.30;41.60
7844;DHT22;3967;48.702;9.326;2023-10-13T13:46:17;28.20;41.20
7844;DHT22;3967;48.702;9.326;2023-10-13T13:48:45;28.10;41.40
7844;DHT22;3967;48.702;9.326;2023-10-13T13:51:14;28.20;41.70
7844;DHT22;3967;48.702;9.326;2023-10-13T13:53:42;28.30;40.90
7844;DHT22;3967;48.702;9.326;2023-10-13T13:56:13;28.10;40.60
7844;DHT22;3967;48.702;9.326;2023-10-13T13:58:47;28.10;40.50
7844;DHT22;3967;48.702;9.326;2023-10-13T14:01:15;28.20;38.90
7844;DHT22;3967;48.702;9.326;2023-10-13T14:03:43;28.10;38.10
7844;DHT22;3967;48.702;9.326;2023-10-13T14:06:13;28.00;38.10
7844;DHT22;3967;48.702;9.326;2023-10-13T14:08:45;28.00;38.40
7844;DHT22;3967;48.702;9.326;2023-10-13T14:11:17;28.00;38.40
7844;DHT22;3967;48.702;9.326;2023-10-13T14:14:02;27.90;38.10
7844;DHT22;3967;48.702;9.326;2023-10-13T14:16:30;27.90;37.70
7844;DHT22;3967;48.702;9.326;2023-10-13T14:19:04;27.90;37.70
7844;DHT22;3967;48.702;9.326;2023-10-13T14:21:34;27.80;37.80
7844;DHT22;3967;48.702;9.326;2023-10-13T14:24:01;27.80;37.50
7844;DHT22;3967;48.702;9.326;2023-10-13T14:26:29;27.80;37.80
7844;DHT22;3967;48.702;9.326;2023-10-13T14:28:56;27.80;37.00
7844;DHT22;3967;48.702;9.326;2023-10-13T14:31:31;27.80;36.80
7844;DHT22;3967;48.702;9.326;2023-10-13T14:33:58;27.80;37.00
7844;DHT22;3967;48.702;9.326;2023-10-13T14:36:25;27.80;36.70
7844;DHT22;3967;48.702;9.326;2023-10-13T14:39:04;27.80;37.00
7844;DHT22;3967;48.702;9.326;2023-10-13T14:41:36;27.70;37.00
7844;DHT22;3967;48.702;9.326;2023-10-13T14:44:04;27.70;37.40
7844;DHT22;3967;48.702;9.326;2023-10-13T14:46:35;27.70;37.60
7844;DHT22;3967;48.702;9.326;2023-10-13T14:49:06;27.70;37.30
7844;DHT22;3967;48.702;9.326;2023-10-13T14:51:33;27.60;36.70
7844;DHT22;3967;48.702;9.326;2023-10-13T14:54:00;27.70;36.80
7844;DHT22;3967;48.702;9.326;2023-10-13T14:56:27;27.70;37.20
7844;DHT22;3967;48.702;9.326;2023-10-13T14:58:54;27.70;37.00
7844;DHT22;3967;48.702;9.326;2023-10-13T15:01:22;27.70;36.80
7844;DHT22;3967;48.702;9.326;2023-10-13T15:03:52;27.70;36.20
7844;DHT22;3967;48.702;9.326;2023-10-13T15:06:24;27.60;35.80
7844;DHT22;3967;48.702;9.326;2023-10-13T15:08:52;27.60;35.90
7844;DHT22;3967;48.702;9.326;2023-10-13T15:11:22;27.60;36.00
7844;DHT22;3967;48.702;9.326;2023-10-13T15:13:53;27.50;35.40
7844;DHT22;3967;48.702;9.326;2023-10-13T15:16:25;27.50;35.30
7844;DHT22;3967;48.702;9.326;2023-10-13T15:18:54;27.40;35.00
7844;DHT22;3967;48.702;9.326;2023-10-13T15:23:54;27.30;33.90
7844;DHT22;3967;48.702;9.326;2023-10-13T15:26:25;27.20;33.10
7844;DHT22;3967;48.702;9.326;2023-10-13T15:28:52;27.20;32.80
7844;DHT22;3967;48.702;9.326;2023-10-13T15:31:22;27.10;32.70
7844;DHT22;3967;48.702;9.326;2023-10-13T15:33:54;27.10;32.80
7844;DHT22;3967;48.702;9.326;2023-10-13T15:36:22;27.00;32.90
7844;DHT22;3967;48.702;9.326;2023-10-13T15:38:50;27.00;33.00
7844;DHT22;3967;48.702;9.326;2023-10-13T15:41:26;27.00;32.90
7844;DHT22;3967;48.702;9.326;2023-10-13T15:43:54;27.00;33.20
7844;DHT22;3967;48.702;9.326;2023-10-13T15:46:22;26.90;33.40
7844;DHT22;3967;48.702;9.326;2023-10-13T15:49:09;26.90;33.60
7844;DHT22;3967;48.702;9.326;2023-10-13T15:51:41;27.00;33.70
7844;DHT22;3967;48.702;9.326;2023-10-13T15:54:08;27.00;33.90
7844;DHT22;3967;48.702;9.326;2023-10-13T15:56:45;26.80;34.00
7844;DHT22;3967;48.702;9.326;2023-10-13T15:59:12;26.70;34.20
7844;DHT22;3967;48.702;9.326;2023-10-13T16:01:41;26.80;34.50
7844;DHT22;3967;48.702;9.326;2023-10-13T16:04:09;26.80;34.60
7844;DHT22;3967;48.702;9.326;2023-10-13T16:06:41;26.70;34.70
7844;DHT22;3967;48.702;9.326;2023-10-13T16:09:08;26.60;35.10
7844;DHT22;3967;48.702;9.326;2023-10-13T16:11:44;26.60;35.20
7844;DHT22;3967;48.702;9.326;2023-10-13T16:14:13;26.60;35.30
7844;DHT22;3967;48.702;9.326;2023-10-13T16:16:45;26.50;35.40
7844;DHT22;3967;48.702;9.326;2023-10-13T16:19:16;26.50;35.40
7844;DHT22;3967;48.702;9.326;2023-10-13T16:21:47;26.40;35.70
7844;DHT22;3967;48.702;9.326;2023-10-13T16:24:14;26.40;36.10
7844;DHT22;3967;48.702;9.326;2023-10-13T16:26:45;26.30;36.10
7844;DHT22;3967;48.702;9.326;2023-10-13T16:29:16;26.10;36.60
7844;DHT22;3967;48.702;9.326;2023-10-13T16:31:43;26.00;36.80
7844;DHT22;3967;48.702;9.326;2023-10-13T16:34:17;26.00;37.00
7844;DHT22;3967;48.702;9.326;2023-10-13T16:36:45;26.00;37.00
7844;DHT22;3967;48.702;9.326;2023-10-13T16:39:15;25.90;37.50
7844;DHT22;3967;48.702;9.326;2023-10-13T16:41:44;25.70;37.50
7844;DHT22;3967;48.702;9.326;2023-10-13T16:44:14;25.70;37.90
7844;DHT22;3967;48.702;9.326;2023-10-13T16:46:42;25.70;37.90
7844;DHT22;3967;48.702;9.326;2023-10-13T16:49:09;25.60;38.10
7844;DHT22;3967;48.702;9.326;2023-10-13T16:51:37;25.60;38.30
7844;DHT22;3967;48.702;9.326;2023-10-13T16:54:05;25.50;38.90
7844;DHT22;3967;48.702;9.326;2023-10-13T16:56:34;25.40;39.00
7844;DHT22;3967;48.702;9.326;2023-10-13T16:59:02;25.30;39.10
7844;DHT22;3967;48.702;9.326;2023-10-13T17:01:31;25.00;39.30
7844;DHT22;3967;48.702;9.326;2023-10-13T17:03:58;25.00;39.70
7844;DHT22;3967;48.702;9.326;2023-10-13T17:06:25;24.90;40.10